Weather at Cape Palmas Airport

Public forecast

Using degrees Celsius for public forecast. Weather courtesy of forecast.io.

Closest aviation weather report (METAR) to Cape Palmas Airport

Report is more than 6 hours old.

Closest report is Tabou Airport, 20.3 nm (37.6 km) E. Retrieved 2017/12/30 13:00 UTC (3 years ago):

DITB 301300Z 14008KT 8000 SCT013 30/25 Q1011 NOSIG

Closest aviation forecast (TAF) to Cape Palmas Airport

Forecast is more than 6 hours old.

Closest forecast is Roberts International Airport, 194.4 nm (360.0 km) NW. Retrieved 2021/03/04 06:18 UTC (8 hours ago):

TAF COR TAF COR GLRB 040500Z 0406/0506 22010KT 999 BKN018 BECMG 0407/0409 06004KT 4000 BR SCT011 TEMPO 0410/0414 24008KT 9999 TS BKN016 FEW026CB BECMG 0416/0418 25011KT SCT015